Mc Cleary, Washington
Current Conditions -  °F | °C
As of 9:53 AM on Thursday 23 Oct 2014 (Local Time) from KSHN Reporting Station
Overcast Overcast  
Wind Chill: 51°   Ceiling: 4100
Heat Index: 51°   Visibility: 10mi
Dew Point: 48°   Wind: 0mph
Humidity: 89%   Direction: NA
Pressure: 29.75"   Gusts: NA
Location:  47.0427°N, 123.269°W
Report Text: KSHN 231653Z AUTO 00000KT 10SM BKN041 BKN060 OVC070 11/09 A2975 RMK AO2 RAE51 SLP075 P0002 T01060089 TSNO
Loading
Personal Weather Stations






























Interactive Weather Map
Tropical Storm Tracking
New forecast layout! Learn more

10-Day Weather Forecast

Advertisements
Track Severe Weather on mobile